Time;durP1;ratioP1;P1;durP2;ratioP2;P2;SDS_P1;SDS_P2;PMS_P1;PMS_P2;Temp;Humidity;BMP_temperature;BMP_pressure;BME280_temperature;BME280_humidity;BME280_pressure;Samples;Min_cycle;Max_cycle;Signal;HPM_P1;HPM_P2
2022/11/25 00:00:44;;;;;;;14.30;7.88;;;;;;;;;;5057453;28;20209;-67
2022/11/25 00:03:10;;;;;;;12.38;7.93;;;;;;;;;;5057265;28;20239;-67
2022/11/25 00:05:38;;;;;;;11.10;7.32;;;;;;;;;;5057238;28;20227;-67
2022/11/25 00:08:04;;;;;;;19.45;8.85;;;;;;;;;;5057180;28;20251;-66
2022/11/25 00:10:31;;;;;;;15.60;7.95;;;;;;;;;;5057454;28;20243;-66
2022/11/25 00:12:57;;;;;;;13.98;8.25;;;;;;;;;;5056888;28;20216;-66
2022/11/25 00:15:23;;;;;;;10.90;7.35;;;;;;;;;;5057392;28;20420;-66
2022/11/25 00:17:49;;;;;;;13.90;7.43;;;;;;;;;;5057441;28;20216;-66
2022/11/25 00:20:18;;;;;;;11.88;7.90;;;;;;;;;;5060611;28;20215;-67
2022/11/25 00:22:46;;;;;;;17.75;8.30;;;;;;;;;;5062570;28;20303;-67
2022/11/25 00:25:12;;;;;;;11.23;7.45;;;;;;;;;;5062853;28;20386;-67
2022/11/25 00:27:38;;;;;;;10.05;7.28;;;;;;;;;;5062593;28;20221;-67
2022/11/25 00:30:05;;;;;;;12.82;7.75;;;;;;;;;;5062987;28;20227;-67
2022/11/25 00:32:32;;;;;;;10.95;7.22;;;;;;;;;;5062445;28;20189;-67
2022/11/25 00:34:58;;;;;;;13.40;7.85;;;;;;;;;;5062343;28;20344;-67
2022/11/25 00:37:24;;;;;;;13.38;7.80;;;;;;;;;;5062181;28;20243;-67
2022/11/25 00:39:52;;;;;;;16.75;8.57;;;;;;;;;;5062459;28;20201;-67
2022/11/25 00:45:02;;;;;;;12.65;7.15;;;;;;;;;;5062383;28;20191;-67
2022/11/25 00:47:29;;;;;;;13.60;7.65;;;;;;;;;;5062233;28;20223;-67
2022/11/25 00:49:55;;;;;;;13.48;7.78;;;;;;;;;;5061861;28;20204;-67
2022/11/25 00:52:22;;;;;;;13.50;7.53;;;;;;;;;;5062049;28;20204;-67
2022/11/25 00:54:49;;;;;;;14.73;8.15;;;;;;;;;;5061956;28;20197;-67
2022/11/25 00:57:18;;;;;;;12.77;7.97;;;;;;;;;;5061948;28;20221;-66
2022/11/25 00:59:44;;;;;;;13.85;8.07;;;;;;;;;;5061630;28;20198;-66
2022/11/25 01:02:11;;;;;;;16.60;7.30;;;;;;;;;;5062047;28;20615;-66
2022/11/25 01:04:38;;;;;;;15.00;8.35;;;;;;;;;;5062276;28;20201;-66
2022/11/25 01:07:04;;;;;;;22.48;8.82;;;;;;;;;;5062164;28;20385;-66
2022/11/25 01:09:31;;;;;;;12.38;7.68;;;;;;;;;;5061833;28;20197;-66
2022/11/25 01:11:57;;;;;;;15.80;8.38;;;;;;;;;;5062042;28;20211;-67
2022/11/25 01:14:25;;;;;;;16.40;8.50;;;;;;;;;;5061836;28;20205;-67
2022/11/25 01:16:52;;;;;;;19.45;9.05;;;;;;;;;;5061651;28;20220;-67
2022/11/25 01:19:18;;;;;;;18.15;8.32;;;;;;;;;;5061494;28;20213;-67
2022/11/25 01:21:46;;;;;;;14.70;8.75;;;;;;;;;;5062007;28;20396;-67
2022/11/25 01:24:12;;;;;;;17.70;8.65;;;;;;;;;;5061846;28;20196;-67
2022/11/25 01:26:39;;;;;;;13.88;8.50;;;;;;;;;;5061838;28;20193;-67
2022/11/25 01:29:06;;;;;;;16.20;8.93;;;;;;;;;;5061330;28;20231;-67
2022/11/25 01:31:35;;;;;;;17.15;9.07;;;;;;;;;;5061630;28;20205;-67
2022/11/25 01:34:02;;;;;;;14.45;8.93;;;;;;;;;;5061689;28;20200;-67
2022/11/25 01:36:29;;;;;;;15.05;9.85;;;;;;;;;;5061714;28;20413;-67
2022/11/25 01:38:56;;;;;;;18.60;10.15;;;;;;;;;;5061462;28;20196;-67
2022/11/25 01:41:22;;;;;;;16.98;9.65;;;;;;;;;;5061754;28;20203;-67
2022/11/25 01:44:09;;;;;;;21.02;9.75;;;;;;;;;;5061609;28;20193;-67
2022/11/25 01:46:41;;;;;;;17.10;9.63;;;;;;;;;;5061527;28;20199;-67
2022/11/25 01:49:11;;;;;;;15.35;9.65;;;;;;;;;;5061504;28;20197;-67
2022/11/25 01:51:40;;;;;;;15.57;9.45;;;;;;;;;;5061501;28;20400;-67
2022/11/25 01:54:09;;;;;;;17.08;9.40;;;;;;;;;;5061615;28;20319;-67
2022/11/25 01:56:37;;;;;;;17.20;9.32;;;;;;;;;;5061325;28;20220;-67
2022/11/25 01:59:04;;;;;;;15.63;8.43;;;;;;;;;;5061485;28;20193;-67
2022/11/25 02:01:30;;;;;;;13.98;9.50;;;;;;;;;;5061564;28;20212;-67
2022/11/25 02:03:58;;;;;;;17.38;9.27;;;;;;;;;;5061519;28;20501;-67
2022/11/25 02:06:25;;;;;;;17.23;9.57;;;;;;;;;;5061354;28;20200;-67
2022/11/25 02:08:53;;;;;;;16.02;9.50;;;;;;;;;;5061677;28;20203;-67
2022/11/25 02:11:20;;;;;;;15.65;9.35;;;;;;;;;;5061922;28;20204;-67
2022/11/25 02:13:48;;;;;;;15.82;9.90;;;;;;;;;;5065228;28;20395;-67
2022/11/25 02:16:15;;;;;;;17.52;9.50;;;;;;;;;;5064969;28;20224;-67
2022/11/25 02:18:41;;;;;;;14.95;9.32;;;;;;;;;;5064815;28;20248;-66
2022/11/25 02:21:09;;;;;;;17.35;9.50;;;;;;;;;;5065140;28;20197;-66
2022/11/25 02:23:39;;;;;;;15.52;9.93;;;;;;;;;;5064870;28;20204;-66
2022/11/25 02:26:06;;;;;;;25.83;9.90;;;;;;;;;;5065116;28;20197;-66
2022/11/25 02:28:33;;;;;;;15.38;9.57;;;;;;;;;;5064649;28;20520;-66
2022/11/25 02:30:59;;;;;;;14.88;9.07;;;;;;;;;;5064872;28;20397;-66
2022/11/25 02:33:27;;;;;;;14.77;9.27;;;;;;;;;;5064893;28;20205;-66
2022/11/25 02:35:55;;;;;;;16.45;9.23;;;;;;;;;;5064611;28;20197;-66
2022/11/25 02:38:23;;;;;;;16.17;9.20;;;;;;;;;;5064739;28;20205;-66
2022/11/25 02:40:51;;;;;;;17.55;9.30;;;;;;;;;;5064752;28;20209;-66
2022/11/25 02:43:19;;;;;;;15.43;9.18;;;;;;;;;;5064776;28;20381;-66
2022/11/25 02:45:48;;;;;;;15.55;9.10;;;;;;;;;;5064531;28;20526;-66
2022/11/25 02:48:14;;;;;;;12.65;9.00;;;;;;;;;;5064288;28;20193;-66
2022/11/25 02:50:41;;;;;;;15.95;8.27;;;;;;;;;;5064307;28;20204;-66
2022/11/25 02:53:07;;;;;;;12.20;8.30;;;;;;;;;;5064659;28;20384;-66
2022/11/25 02:55:33;;;;;;;11.68;7.50;;;;;;;;;;5064542;28;20201;-66
2022/11/25 02:58:00;;;;;;;14.70;7.75;;;;;;;;;;5063875;28;20440;-66
2022/11/25 03:00:27;;;;;;;14.48;8.95;;;;;;;;;;5063867;28;20204;-66
2022/11/25 03:02:54;;;;;;;11.95;7.70;;;;;;;;;;5064554;28;20197;-66
2022/11/25 03:05:20;;;;;;;12.75;7.68;;;;;;;;;;5064344;28;20204;-66
2022/11/25 03:07:46;;;;;;;10.48;7.53;;;;;;;;;;5064039;28;20239;-66
2022/11/25 03:10:13;;;;;;;9.45;7.55;;;;;;;;;;5064063;28;20201;-66
2022/11/25 03:12:39;;;;;;;10.07;7.07;;;;;;;;;;5063963;28;20211;-66
2022/11/25 03:15:06;;;;;;;8.75;7.05;;;;;;;;;;5064101;28;20515;-66
2022/11/25 03:17:33;;;;;;;12.07;8.02;;;;;;;;;;5063719;28;20229;-66
2022/11/25 03:20:00;;;;;;;10.38;7.03;;;;;;;;;;5063953;28;20399;-66
2022/11/25 03:22:26;;;;;;;13.63;7.38;;;;;;;;;;5063609;28;20197;-66
2022/11/25 03:24:52;;;;;;;14.40;8.43;;;;;;;;;;5063798;28;20197;-66
2022/11/25 03:27:19;;;;;;;14.20;8.02;;;;;;;;;;5063675;28;20523;-66
2022/11/25 03:29:45;;;;;;;11.57;7.80;;;;;;;;;;5063779;28;20196;-66
2022/11/25 03:32:11;;;;;;;12.50;7.93;;;;;;;;;;5063664;28;20197;-66
2022/11/25 03:34:39;;;;;;;13.05;8.15;;;;;;;;;;5063671;28;20430;-66
2022/11/25 03:37:05;;;;;;;11.07;8.07;;;;;;;;;;5063486;28;20409;-66
2022/11/25 03:39:32;;;;;;;14.80;8.95;;;;;;;;;;5063297;28;20213;-66
2022/11/25 03:41:58;;;;;;;11.50;7.55;;;;;;;;;;5063362;28;20431;-66
2022/11/25 03:44:24;;;;;;;11.88;8.00;;;;;;;;;;5063614;28;20208;-66
2022/11/25 03:46:51;;;;;;;16.00;7.78;;;;;;;;;;5063644;28;20212;-66
2022/11/25 03:49:17;;;;;;;14.50;8.43;;;;;;;;;;5063257;28;20197;-66
2022/11/25 03:51:44;;;;;;;12.25;8.10;;;;;;;;;;5063242;28;20197;-66
2022/11/25 03:54:11;;;;;;;12.63;8.07;;;;;;;;;;5063276;28;20228;-66
2022/11/25 03:56:37;;;;;;;9.75;7.38;;;;;;;;;;5063105;28;20244;-66
2022/11/25 03:59:03;;;;;;;10.52;7.75;;;;;;;;;;5063136;28;20197;-66
2022/11/25 04:01:29;;;;;;;12.70;7.35;;;;;;;;;;5063228;28;20201;-66
2022/11/25 04:03:56;;;;;;;14.68;8.38;;;;;;;;;;5063167;28;20205;-66
2022/11/25 04:06:22;;;;;;;11.63;8.02;;;;;;;;;;5063019;28;20201;-66
2022/11/25 04:08:50;;;;;;;9.45;7.10;;;;;;;;;;5063260;28;20193;-66
2022/11/25 04:11:17;;;;;;;12.73;8.32;;;;;;;;;;5062776;28;20197;-66
2022/11/25 04:13:42;;;;;;;12.25;7.40;;;;;;;;;;5062997;28;20205;-66
2022/11/25 04:16:14;;;;;;;10.98;7.80;;;;;;;;;;5063060;28;20272;-66
2022/11/25 04:18:41;;;;;;;13.98;7.63;;;;;;;;;;5062538;28;20221;-66
2022/11/25 04:21:07;;;;;;;12.65;7.03;;;;;;;;;;5062855;28;20201;-66
2022/11/25 04:23:33;;;;;;;11.38;7.82;;;;;;;;;;5062541;28;20197;-66
2022/11/25 04:26:01;;;;;;;12.70;7.13;;;;;;;;;;5062564;28;20207;-66
2022/11/25 04:28:27;;;;;;;14.43;7.85;;;;;;;;;;5062542;28;20554;-66
2022/11/25 04:30:53;;;;;;;12.05;7.28;;;;;;;;;;5062632;28;20197;-66
2022/11/25 04:33:20;;;;;;;15.23;7.72;;;;;;;;;;5062582;28;20197;-66
2022/11/25 04:35:48;;;;;;;13.00;7.75;;;;;;;;;;5061925;28;20204;-67
2022/11/25 04:38:14;;;;;;;13.05;7.22;;;;;;;;;;5061950;28;20221;-67
2022/11/25 04:40:40;;;;;;;13.88;7.07;;;;;;;;;;5062640;28;20272;-67
2022/11/25 04:43:09;;;;;;;9.35;6.80;;;;;;;;;;5062764;28;20205;-67
2022/11/25 04:45:35;;;;;;;10.05;7.25;;;;;;;;;;5062554;28;20197;-67
2022/11/25 04:48:01;;;;;;;11.05;6.78;;;;;;;;;;5062328;28;20200;-67
2022/11/25 04:50:27;;;;;;;10.85;6.80;;;;;;;;;;5062159;28;20522;-66
2022/11/25 04:52:54;;;;;;;12.50;6.75;;;;;;;;;;5062163;28;20205;-66
2022/11/25 04:55:20;;;;;;;12.90;6.97;;;;;;;;;;5062414;28;20205;-66
2022/11/25 04:57:46;;;;;;;7.55;6.75;;;;;;;;;;5062015;28;20221;-66
2022/11/25 05:00:13;;;;;;;17.17;7.43;;;;;;;;;;5062132;28;20197;-66
2022/11/25 05:02:40;;;;;;;9.52;7.63;;;;;;;;;;5062074;28;20197;-66
2022/11/25 05:05:07;;;;;;;15.52;8.27;;;;;;;;;;5061881;28;20221;-66
2022/11/25 05:07:33;;;;;;;10.10;7.32;;;;;;;;;;5062081;28;20383;-66
2022/11/25 05:09:59;;;;;;;13.82;7.72;;;;;;;;;;5061857;28;20197;-66
2022/11/25 05:12:26;;;;;;;10.95;7.53;;;;;;;;;;5062217;28;20204;-66
2022/11/25 05:14:53;;;;;;;11.13;7.30;;;;;;;;;;5062005;28;20439;-66
2022/11/25 05:17:21;;;;;;;13.25;6.35;;;;;;;;;;5061931;28;20225;-66
2022/11/25 05:19:47;;;;;;;12.32;6.95;;;;;;;;;;5061592;28;20205;-66
2022/11/25 05:22:15;;;;;;;9.15;6.85;;;;;;;;;;5062012;28;20189;-67
2022/11/25 05:24:41;;;;;;;8.73;6.88;;;;;;;;;;5061797;28;20211;-67
2022/11/25 05:27:07;;;;;;;10.68;6.75;;;;;;;;;;5062194;28;20193;-67
2022/11/25 05:29:34;;;;;;;8.73;6.43;;;;;;;;;;5061696;28;20219;-67
2022/11/25 05:32:00;;;;;;;12.35;7.93;;;;;;;;;;5061792;28;20197;-67
2022/11/25 05:34:28;;;;;;;14.57;7.07;;;;;;;;;;5061715;28;20197;-67
2022/11/25 05:36:54;;;;;;;10.80;6.50;;;;;;;;;;5061713;28;20204;-67
2022/11/25 05:39:21;;;;;;;12.68;6.78;;;;;;;;;;5061676;28;20208;-67
2022/11/25 05:41:47;;;;;;;12.82;7.13;;;;;;;;;;5061899;28;20203;-67
2022/11/25 05:44:13;;;;;;;12.35;7.18;;;;;;;;;;5061776;28;20196;-67
2022/11/25 05:46:39;;;;;;;11.55;6.82;;;;;;;;;;5062599;28;20197;-67
2022/11/25 05:49:06;;;;;;;11.70;6.88;;;;;;;;;;5065364;28;20200;-67
2022/11/25 05:51:34;;;;;;;12.90;7.57;;;;;;;;;;5065921;28;20201;-67
2022/11/25 05:54:01;;;;;;;12.23;7.72;;;;;;;;;;5065847;28;20413;-67
2022/11/25 05:56:27;;;;;;;15.65;9.07;;;;;;;;;;5065535;28;20197;-67
2022/11/25 05:58:54;;;;;;;12.50;7.88;;;;;;;;;;5065263;28;20221;-67
2022/11/25 06:01:21;;;;;;;9.95;8.10;;;;;;;;;;5065404;28;20197;-67
2022/11/25 06:03:47;;;;;;;12.52;7.82;;;;;;;;;;5065617;28;20302;-67
2022/11/25 06:06:14;;;;;;;11.80;7.93;;;;;;;;;;5065319;28;20224;-67
2022/11/25 06:08:41;;;;;;;16.13;8.52;;;;;;;;;;5065248;28;20193;-67
2022/11/25 06:11:08;;;;;;;12.68;7.85;;;;;;;;;;5065395;28;20197;-67
2022/11/25 06:13:35;;;;;;;11.90;7.90;;;;;;;;;;5065304;28;20204;-67
2022/11/25 06:16:06;;;;;;;9.63;7.80;;;;;;;;;;5065022;28;20203;-67
2022/11/25 06:18:32;;;;;;;14.52;7.57;;;;;;;;;;5064362;28;20225;-67
2022/11/25 06:20:59;;;;;;;11.20;7.63;;;;;;;;;;5064903;28;20342;-67
2022/11/25 06:23:25;;;;;;;10.05;8.05;;;;;;;;;;5064808;28;20201;-68
2022/11/25 06:25:53;;;;;;;14.50;8.35;;;;;;;;;;5064787;28;20205;-68
2022/11/25 06:28:19;;;;;;;11.70;6.47;;;;;;;;;;5064721;28;20219;-68
2022/11/25 06:30:45;;;;;;;14.00;7.13;;;;;;;;;;5064473;28;20212;-68
2022/11/25 06:33:12;;;;;;;10.45;7.43;;;;;;;;;;5064500;28;20205;-68
2022/11/25 06:35:38;;;;;;;10.52;7.18;;;;;;;;;;5064634;28;20204;-68
2022/11/25 06:38:04;;;;;;;12.52;7.20;;;;;;;;;;5064290;28;20220;-68
2022/11/25 06:40:31;;;;;;;9.88;6.78;;;;;;;;;;5064681;28;20197;-68
2022/11/25 06:42:58;;;;;;;13.65;7.68;;;;;;;;;;5064532;28;20250;-68
2022/11/25 06:45:25;;;;;;;14.05;8.13;;;;;;;;;;5064408;28;20204;-68
2022/11/25 06:47:51;;;;;;;13.27;8.55;;;;;;;;;;5064533;28;20392;-68
2022/11/25 06:50:18;;;;;;;12.90;7.78;;;;;;;;;;5064720;28;20207;-68
2022/11/25 06:52:44;;;;;;;9.55;7.78;;;;;;;;;;5064472;28;20236;-68
2022/11/25 06:55:10;;;;;;;10.73;8.02;;;;;;;;;;5064824;28;20204;-68
2022/11/25 06:57:36;;;;;;;9.05;7.53;;;;;;;;;;5063539;28;20209;-68
2022/11/25 07:00:05;;;;;;;13.25;7.85;;;;;;;;;;5064256;28;20201;-68
2022/11/25 07:02:32;;;;;;;11.85;7.75;;;;;;;;;;5064252;28;20205;-68
2022/11/25 07:04:58;;;;;;;12.68;8.10;;;;;;;;;;5064458;28;20385;-68
2022/11/25 07:07:24;;;;;;;10.80;8.10;;;;;;;;;;5064349;28;20197;-68
2022/11/25 07:09:51;;;;;;;10.27;8.00;;;;;;;;;;5064017;28;20201;-68
2022/11/25 07:12:17;;;;;;;15.30;9.45;;;;;;;;;;5064134;28;20251;-68
2022/11/25 07:14:43;;;;;;;15.10;7.97;;;;;;;;;;5064420;28;20391;-68
2022/11/25 07:17:11;;;;;;;13.35;8.95;;;;;;;;;;5064221;28;20204;-68
2022/11/25 07:19:37;;;;;;;11.48;8.60;;;;;;;;;;5063498;28;20213;-68
2022/11/25 07:22:03;;;;;;;10.70;7.85;;;;;;;;;;5064050;28;20205;-68
2022/11/25 07:24:30;;;;;;;12.13;8.90;;;;;;;;;;5063919;28;20203;-68
2022/11/25 07:26:56;;;;;;;12.60;8.15;;;;;;;;;;5053490;28;20210;-68
2022/11/25 07:29:23;;;;;;;10.07;7.75;;;;;;;;;;5055207;28;20221;-68
2022/11/25 07:31:49;;;;;;;13.82;9.15;;;;;;;;;;5058351;28;20205;-57
2022/11/25 07:34:19;;;;;;;19.42;8.48;;;;;;;;;;5058143;28;20213;-58
2022/11/25 07:36:46;;;;;;;17.42;9.55;;;;;;;;;;5057658;28;20284;-58
2022/11/25 07:39:13;;;;;;;12.50;8.65;;;;;;;;;;5057013;28;20240;-58
2022/11/25 07:41:40;;;;;;;14.50;9.35;;;;;;;;;;5057747;28;20209;-58
2022/11/25 07:44:07;;;;;;;11.25;7.85;;;;;;;;;;5047247;28;20202;-60
2022/11/25 07:46:34;;;;;;;9.48;7.53;;;;;;;;;;5041885;28;20284;-58
2022/11/25 07:49:01;;;;;;;15.15;8.35;;;;;;;;;;5053512;28;20209;-58
2022/11/25 07:51:31;;;;;;;18.55;9.30;;;;;;;;;;5053507;28;20684;-58
2022/11/25 07:53:58;;;;;;;10.07;8.18;;;;;;;;;;5053275;28;20224;-59
2022/11/25 07:56:24;;;;;;;15.05;9.45;;;;;;;;;;5054549;28;20438;-58
2022/11/25 07:58:50;;;;;;;15.60;8.27;;;;;;;;;;5053863;28;20548;-58
2022/11/25 08:01:17;;;;;;;14.30;8.50;;;;;;;;;;5055146;28;20205;-57
2022/11/25 08:03:44;;;;;;;19.83;9.75;;;;;;;;;;5054793;28;20219;-58
2022/11/25 08:06:11;;;;;;;17.92;9.45;;;;;;;;;;5054606;28;20216;-58
2022/11/25 08:08:40;;;;;;;20.00;10.80;;;;;;;;;;5053970;28;20220;-59
2022/11/25 08:11:06;;;;;;;21.20;9.70;;;;;;;;;;5048414;28;20213;-57
2022/11/25 08:13:33;;;;;;;17.90;9.77;;;;;;;;;;5042388;28;20213;-58
2022/11/25 08:15:59;;;;;;;19.60;10.65;;;;;;;;;;5049254;28;20220;-58
2022/11/25 08:18:25;;;;;;;20.23;10.40;;;;;;;;;;5050853;28;20236;-58
2022/11/25 08:20:51;;;;;;;18.30;9.70;;;;;;;;;;5038579;28;20205;-58
2022/11/25 08:23:18;;;;;;;20.42;9.85;;;;;;;;;;5035442;28;20213;-58
2022/11/25 08:25:45;;;;;;;20.08;9.80;;;;;;;;;;5037010;28;20214;-58
2022/11/25 08:28:11;;;;;;;16.23;9.90;;;;;;;;;;5052265;28;20455;-58
2022/11/25 08:30:38;;;;;;;15.68;9.70;;;;;;;;;;5050080;28;20428;-59
2022/11/25 08:33:06;;;;;;;14.82;9.07;;;;;;;;;;5054882;28;20271;-58
2022/11/25 08:35:36;;;;;;;15.15;9.32;;;;;;;;;;5056024;28;20235;-59
2022/11/25 08:38:02;;;;;;;18.73;10.07;;;;;;;;;;5054581;28;20228;-59
2022/11/25 08:40:29;;;;;;;14.25;9.65;;;;;;;;;;5054964;28;20219;-58
2022/11/25 08:42:56;;;;;;;18.10;9.23;;;;;;;;;;5044908;28;20228;-58
2022/11/25 08:45:23;;;;;;;16.90;9.50;;;;;;;;;;5035868;28;20479;-57
2022/11/25 08:47:49;;;;;;;16.38;9.88;;;;;;;;;;5046011;28;20407;-59
2022/11/25 08:50:15;;;;;;;14.18;9.23;;;;;;;;;;5055084;28;20219;-58
2022/11/25 08:52:42;;;;;;;16.27;8.82;;;;;;;;;;5055239;28;20225;-58
2022/11/25 08:55:08;;;;;;;14.95;8.52;;;;;;;;;;5055652;28;20406;-58
2022/11/25 08:57:34;;;;;;;17.33;9.95;;;;;;;;;;5054587;28;20464;-58
2022/11/25 09:00:03;;;;;;;11.48;8.88;;;;;;;;;;5054177;28;20633;-58
2022/11/25 09:02:29;;;;;;;19.58;9.63;;;;;;;;;;5055030;28;20201;-59
2022/11/25 09:04:55;;;;;;;18.63;8.80;;;;;;;;;;5053832;28;20437;-58
2022/11/25 09:07:22;;;;;;;14.63;8.68;;;;;;;;;;5054292;28;20220;-58
2022/11/25 09:09:48;;;;;;;17.33;9.23;;;;;;;;;;5054804;28;20227;-57
2022/11/25 09:12:14;;;;;;;14.48;9.30;;;;;;;;;;5037814;28;20285;-57
2022/11/25 09:14:41;;;;;;;16.17;9.18;;;;;;;;;;5041115;28;20483;-58
2022/11/25 09:17:12;;;;;;;17.05;9.55;;;;;;;;;;5055001;28;20516;-57
2022/11/25 09:19:38;;;;;;;17.02;9.27;;;;;;;;;;5053499;28;20231;-58
2022/11/25 09:22:05;;;;;;;14.18;9.15;;;;;;;;;;5050880;28;20220;-58
2022/11/25 09:24:31;;;;;;;18.48;9.38;;;;;;;;;;5035343;28;20412;-57
2022/11/25 09:26:57;;;;;;;16.23;10.02;;;;;;;;;;5033917;28;20213;-56
2022/11/25 09:29:24;;;;;;;17.20;9.43;;;;;;;;;;5034314;28;20226;-58
2022/11/25 09:31:50;;;;;;;21.50;10.02;;;;;;;;;;5034772;28;20241;-57
2022/11/25 09:34:17;;;;;;;15.82;9.88;;;;;;;;;;5034221;28;20221;-57
2022/11/25 09:36:44;;;;;;;14.55;10.30;;;;;;;;;;5034671;28;20677;-58
2022/11/25 09:39:10;;;;;;;22.52;11.95;;;;;;;;;;5034740;28;20229;-58
2022/11/25 09:47:20;;;;;;;19.65;9.70;;;;;;;;;;5048807;28;20223;-59
2022/11/25 09:49:58;;;;;;;16.08;9.98;;;;;;;;;;5054106;28;20209;-58
2022/11/25 09:52:29;;;;;;;14.95;9.43;;;;;;;;;;5054324;28;20559;-58
2022/11/25 09:55:00;;;;;;;15.25;9.25;;;;;;;;;;5054154;28;20213;-59
2022/11/25 09:57:29;;;;;;;13.45;9.43;;;;;;;;;;5052944;28;20217;-59
2022/11/25 10:00:01;;;;;;;16.13;9.70;;;;;;;;;;5054291;28;20229;-58
2022/11/25 10:02:29;;;;;;;16.60;9.52;;;;;;;;;;5053704;28;20289;-58
2022/11/25 10:05:01;;;;;;;14.40;9.18;;;;;;;;;;5055120;28;20408;-59
2022/11/25 10:07:32;;;;;;;13.82;9.88;;;;;;;;;;5036480;28;20521;-58
2022/11/25 10:09:59;;;;;;;14.63;8.93;;;;;;;;;;5033934;28;20248;-59
2022/11/25 10:12:27;;;;;;;16.30;9.40;;;;;;;;;;5050154;28;20408;-58
2022/11/25 10:14:59;;;;;;;28.27;14.15;;;;;;;;;;5054283;28;20220;-58
2022/11/25 10:17:30;;;;;;;21.13;11.68;;;;;;;;;;5052644;28;20213;-58
2022/11/25 10:20:01;;;;;;;19.00;9.70;;;;;;;;;;5033606;28;20288;-58
2022/11/25 10:22:29;;;;;;;13.07;8.90;;;;;;;;;;5036401;28;20220;-58
2022/11/25 10:24:57;;;;;;;15.48;9.15;;;;;;;;;;5035073;28;20566;-59
2022/11/25 10:27:24;;;;;;;16.15;8.38;;;;;;;;;;5041460;28;20217;-59
2022/11/25 10:30:00;;;;;;;16.55;8.75;;;;;;;;;;5033404;28;20216;-59
2022/11/25 10:32:28;;;;;;;15.80;9.60;;;;;;;;;;5036383;28;20248;-58
2022/11/25 10:34:56;;;;;;;12.25;8.50;;;;;;;;;;5058148;28;20213;-59
2022/11/25 10:37:27;;;;;;;12.52;8.73;;;;;;;;;;5056645;28;20515;-58
2022/11/25 10:39:53;;;;;;;13.77;8.15;;;;;;;;;;5041926;28;20237;-58
2022/11/25 10:42:21;;;;;;;15.40;8.43;;;;;;;;;;5057115;28;20236;-58
2022/11/25 10:44:47;;;;;;;18.70;9.23;;;;;;;;;;5057085;28;20500;-57
2022/11/25 10:47:21;;;;;;;22.55;9.50;;;;;;;;;;5057562;28;20213;-58
2022/11/25 10:49:56;;;;;;;17.67;10.65;;;;;;;;;;5046452;28;20210;-58
2022/11/25 10:52:23;;;;;;;14.90;8.85;;;;;;;;;;5043042;28;20212;-58
2022/11/25 10:54:57;;;;;;;11.80;8.38;;;;;;;;;;5057666;28;20524;-58
2022/11/25 10:57:27;;;;;;;12.93;8.23;;;;;;;;;;5042474;28;20213;-58
2022/11/25 10:59:54;;;;;;;11.15;7.93;;;;;;;;;;5035969;28;20420;-58
2022/11/25 11:02:23;;;;;;;14.63;7.97;;;;;;;;;;5038935;28;20210;-60
2022/11/25 11:04:52;;;;;;;13.98;8.43;;;;;;;;;;5057481;28;20293;-60
2022/11/25 11:07:18;;;;;;;9.05;7.88;;;;;;;;;;5042924;28;20521;-58
2022/11/25 11:09:47;;;;;;;13.48;8.20;;;;;;;;;;5037022;28;20210;-61
2022/11/25 11:12:17;;;;;;;12.60;7.70;;;;;;;;;;5043473;28;20220;-58
2022/11/25 11:14:44;;;;;;;11.25;7.72;;;;;;;;;;5056311;28;20700;-58
2022/11/25 11:17:22;;;;;;;8.75;7.57;;;;;;;;;;5054994;28;20217;-59
2022/11/25 11:20:00;;;;;;;9.68;7.35;;;;;;;;;;5042674;28;20229;-59
2022/11/25 11:22:26;;;;;;;11.20;7.45;;;;;;;;;;5056339;28;20594;-59
2022/11/25 11:25:04;;;;;;;10.00;7.65;;;;;;;;;;5056956;28;20208;-59
2022/11/25 11:27:35;;;;;;;12.82;7.90;;;;;;;;;;5051989;28;20247;-59
2022/11/25 11:30:07;;;;;;;13.50;7.93;;;;;;;;;;5055707;28;21721;-59
2022/11/25 11:32:34;;;;;;;12.68;7.97;;;;;;;;;;5056763;28;20216;-59
2022/11/25 11:35:03;;;;;;;13.10;7.97;;;;;;;;;;5056658;28;20612;-59
2022/11/25 11:37:39;;;;;;;9.57;7.95;;;;;;;;;;5055236;28;20209;-58
2022/11/25 11:40:24;;;;;;;11.85;8.43;;;;;;;;;;5036747;28;20283;-58
2022/11/25 11:42:57;;;;;;;13.10;8.27;;;;;;;;;;5053457;28;20406;-58
2022/11/25 11:45:32;;;;;;;16.20;8.07;;;;;;;;;;5038913;28;20570;-58
2022/11/25 11:48:04;;;;;;;13.23;8.95;;;;;;;;;;5054973;28;20213;-58
2022/11/25 11:50:31;;;;;;;15.98;8.63;;;;;;;;;;5056141;28;20607;-58
2022/11/25 11:53:01;;;;;;;13.25;8.45;;;;;;;;;;5055385;28;20213;-59
2022/11/25 11:55:36;;;;;;;11.48;7.85;;;;;;;;;;5056453;28;20216;-59
2022/11/25 11:58:09;;;;;;;15.43;8.57;;;;;;;;;;5050164;28;20213;-58
2022/11/25 12:00:40;;;;;;;12.93;7.60;;;;;;;;;;5035259;28;20233;-59
2022/11/25 12:03:10;;;;;;;11.50;7.82;;;;;;;;;;5046167;28;20217;-58
2022/11/25 12:05:37;;;;;;;16.25;7.90;;;;;;;;;;5035801;28;20214;-58
2022/11/25 12:08:06;;;;;;;11.30;8.52;;;;;;;;;;5035232;28;20214;-58
2022/11/25 12:10:36;;;;;;;13.82;8.32;;;;;;;;;;5043282;28;20212;-58
2022/11/25 12:13:11;;;;;;;14.55;8.82;;;;;;;;;;5036528;28;20237;-59
2022/11/25 12:15:41;;;;;;;13.80;7.65;;;;;;;;;;5035322;28;20213;-58
2022/11/25 12:18:13;;;;;;;12.63;7.82;;;;;;;;;;5034889;28;20220;-58
2022/11/25 12:20:42;;;;;;;11.57;8.05;;;;;;;;;;5053963;28;20225;-58
2022/11/25 12:23:12;;;;;;;18.35;8.45;;;;;;;;;;5041540;28;20221;-58
2022/11/25 12:25:40;;;;;;;16.48;8.60;;;;;;;;;;5035679;28;20532;-59
2022/11/25 12:28:10;;;;;;;14.13;8.30;;;;;;;;;;5034234;28;20230;-59
2022/11/25 12:30:38;;;;;;;15.52;9.20;;;;;;;;;;5034822;28;20213;-58
2022/11/25 12:33:09;;;;;;;15.15;8.48;;;;;;;;;;5039702;28;20220;-58
2022/11/25 12:35:45;;;;;;;13.50;8.95;;;;;;;;;;5054920;28;20550;-58
2022/11/25 12:38:20;;;;;;;16.05;8.55;;;;;;;;;;5054665;28;20244;-59
2022/11/25 12:40:49;;;;;;;14.35;8.93;;;;;;;;;;5055492;28;20438;-60
2022/11/25 12:43:23;;;;;;;18.38;9.55;;;;;;;;;;5052695;28;20204;-59
2022/11/25 12:45:51;;;;;;;12.60;9.30;;;;;;;;;;5054288;28;20523;-59
2022/11/25 12:48:18;;;;;;;13.05;8.73;;;;;;;;;;5054944;28;20528;-59
2022/11/25 12:50:48;;;;;;;17.88;9.30;;;;;;;;;;5054815;28;20205;-60
2022/11/25 12:53:18;;;;;;;14.82;8.30;;;;;;;;;;5055038;28;20338;-60
2022/11/25 12:55:45;;;;;;;15.57;8.65;;;;;;;;;;5038266;28;20420;-59
2022/11/25 12:58:35;;;;;;;21.90;9.27;;;;;;;;;;5033515;28;20206;-59
2022/11/25 13:01:16;;;;;;;19.25;10.85;;;;;;;;;;5053039;28;20588;-59
2022/11/25 13:04:15;;;;;;;23.90;15.93;;;;;;;;;;5053993;28;20536;-60
2022/11/25 13:06:50;;;;;;;25.50;13.02;;;;;;;;;;4961369;28;20216;-59
2022/11/25 13:09:27;;;;;;;22.45;10.82;;;;;;;;;;4969797;28;20216;-58
2022/11/25 13:12:09;;;;;;;22.25;11.57;;;;;;;;;;5014292;28;20213;-59
2022/11/25 13:14:47;;;;;;;17.80;9.68;;;;;;;;;;5052402;28;20214;-57
2022/11/25 13:17:16;;;;;;;16.98;9.25;;;;;;;;;;5054142;28;20434;-58
2022/11/25 13:19:42;;;;;;;17.80;10.70;;;;;;;;;;5052799;28;20228;-58
2022/11/25 13:22:26;;;;;;;19.75;10.25;;;;;;;;;;5050247;28;20216;-58
2022/11/25 13:24:52;;;;;;;18.00;9.63;;;;;;;;;;5054581;28;20236;-58
2022/11/25 13:27:29;;;;;;;15.68;9.93;;;;;;;;;;5053882;28;20227;-59
2022/11/25 13:29:55;;;;;;;18.85;10.35;;;;;;;;;;5033311;28;20215;-58
2022/11/25 13:32:29;;;;;;;19.20;8.82;;;;;;;;;;5033465;28;20263;-58
2022/11/25 13:35:10;;;;;;;19.48;8.52;;;;;;;;;;5033418;28;20602;-58
2022/11/25 13:37:38;;;;;;;13.32;7.60;;;;;;;;;;5052514;28;20224;-58
2022/11/25 13:40:20;;;;;;;18.02;8.27;;;;;;;;;;5053543;28;20243;-58
2022/11/25 13:42:47;;;;;;;14.60;8.60;;;;;;;;;;5045551;28;20411;-58
2022/11/25 13:45:25;;;;;;;15.00;8.48;;;;;;;;;;5053921;28;20225;-58
2022/11/25 13:47:53;;;;;;;12.82;8.85;;;;;;;;;;5036545;28;20220;-59
2022/11/25 13:50:22;;;;;;;19.02;9.60;;;;;;;;;;5034170;28;20411;-59
2022/11/25 13:52:49;;;;;;;18.92;9.18;;;;;;;;;;5041729;28;20213;-59
2022/11/25 13:55:23;;;;;;;21.80;9.23;;;;;;;;;;5033926;28;20217;-58
2022/11/25 13:58:01;;;;;;;19.17;9.43;;;;;;;;;;5049729;28;20227;-59
2022/11/25 14:00:57;;;;;;;14.38;8.70;;;;;;;;;;5042147;28;20528;-58
2022/11/25 14:03:42;;;;;;;18.20;8.52;;;;;;;;;;4993922;28;20222;-57
2022/11/25 14:06:14;;;;;;;11.70;7.00;;;;;;;;;;5048730;28;20220;-58
2022/11/25 14:08:43;;;;;;;12.88;6.57;;;;;;;;;;5039661;28;20214;-56
2022/11/25 14:11:26;;;;;;;17.95;6.90;;;;;;;;;;5048927;28;20481;-57
2022/11/25 14:14:06;;;;;;;11.40;6.88;;;;;;;;;;5055514;28;20450;-59
2022/11/25 14:16:44;;;;;;;12.23;6.55;;;;;;;;;;5051759;28;20244;-58
2022/11/25 14:19:22;;;;;;;10.88;6.47;;;;;;;;;;5042037;28;20243;-59
2022/11/25 14:21:57;;;;;;;16.42;9.05;;;;;;;;;;5057787;28;20209;-59
2022/11/25 14:24:29;;;;;;;19.70;8.40;;;;;;;;;;5042368;28;20429;-58
2022/11/25 14:26:57;;;;;;;19.85;8.65;;;;;;;;;;5042828;28;20584;-59
2022/11/25 14:29:25;;;;;;;15.40;8.32;;;;;;;;;;5048958;28;20490;-59
2022/11/25 14:31:53;;;;;;;14.10;7.28;;;;;;;;;;5037506;28;20525;-58
2022/11/25 14:34:21;;;;;;;12.88;6.78;;;;;;;;;;5041336;28;20213;-60
2022/11/25 14:36:49;;;;;;;14.70;6.25;;;;;;;;;;5056932;28;20550;-58
2022/11/25 14:39:20;;;;;;;17.10;5.90;;;;;;;;;;5037406;28;20220;-59
2022/11/25 14:41:52;;;;;;;14.07;5.80;;;;;;;;;;5036941;28;20441;-59
2022/11/25 14:44:21;;;;;;;8.25;5.45;;;;;;;;;;5036752;28;20547;-59
2022/11/25 14:46:51;;;;;;;13.70;5.75;;;;;;;;;;5051750;28;20213;-59